Alpena, MI

6:19 PM EST on December 27, 2014 (GMT -0500)
APRSWXNET Alpena MI US | Change Station
CLOSE
Current Station
Personal Weather Station
Location: Alpena, MI
Elevation: 593 ft
Nearby Weather Stations

Elev 593 ft 45.05 °N, 83.45 °W | Updated 47 minutes ago

Overcast
Overcast
46 °F
Feels Like 44 °F
N
5
Wind Variable Wind from West
Gusts 19.0 mph

Today
High -- | Low -- °F
--% Chance of Precip.
Yesterday
High -- | Low -- °F
Precip. -- in
8:11 AM 4:58 PM
Waxing Crescent, 41% visible
Pressure 29.78 in
Visibility 10.0 miles
Clouds Mostly Cloudy 1700 ft
Overcast 2500 ft
Windchill 44 °F
Dew Point 44 °F
Humidity 91%
Rainfall 0.04 in
Snow Depth Not available.
UV 0 out of 12
Pollen .10 out of 12
Air Quality Not available.
Flu Activity Not available.
METAR KAPN 272254Z AUTO 26010G22KT 240V310 10SM BKN017 OVC025 07/04 A2976 RMK AO2 RAB08E53 SLP084 P0002 T00670044

More Conditions Fewer Conditions

Pressure 29.78 in
Visibility 10.0 miles
Clouds Mostly Cloudy 1700 ft
Overcast 2500 ft
Windchill 44 °F
Dew Point 44 °F
Humidity 91%
Rainfall 0.04 in
Snow Depth Not available.
UV 0 out of 12
Pollen .10 out of 12
Air Quality Not available.
Flu Activity Not available.
METAR KAPN 272254Z AUTO 26010G22KT 240V310 10SM BKN017 OVC025 07/04 A2976 RMK AO2 RAB08E53 SLP084 P0002 T00670044

More Conditions Fewer Conditions

Nowcast | as of 6:00 PM EST on December 27, 2014

At 7 PM...cloudy. Temperature 39. West winds 17 mph. At 9 PM...mostly cloudy. Temperature 34. West winds 15 mph. At 11 PM...mostly cloudy. Temperature 30. West winds 13 mph. At 1 am...partly cloudy. Temperature 27. West winds 12 mph.

×

10-Day Weather Forecast

Almanac

Astronomy

Dec. 27, 2014 Rise Set
Actual Time
Civil Twilight
Nautical Twilight
Astronomical Twilight
Moon
Length of Visible Light
Length of Day
Tomorrow will be .
, % of the Moon is Illuminated

Today's Extremes

State Highs State Lows

Community

WunderPhotos

Upload Photos

1,781,100 photos uploaded!

WunderBlogs® & News

Nearby

Air Quality

  Air Quality AQ Index Pollutant
Not available.

Snow Depth

Station Depth Elevation

Earthquake Activity

City Distance Mag. Time & Date
Minimum magnitude displayed is 2.5.

Coastal Water Temperatures

Place Temperature

Nearby Weather Stations